createdAt,value
2023-08-21T00:01:33.675Z,25.58
2023-08-21T00:04:01.352Z,25.56
2023-08-21T00:06:29.047Z,25.51
2023-08-21T00:08:56.653Z,25.49
2023-08-21T00:11:24.276Z,25.48
2023-08-21T00:13:51.939Z,25.46
2023-08-21T00:16:19.691Z,25.44
2023-08-21T00:18:47.348Z,25.45
2023-08-21T00:21:15.189Z,25.45
2023-08-21T00:23:42.873Z,25.46
2023-08-21T00:26:10.690Z,25.40
2023-08-21T00:28:38.588Z,25.44
2023-08-21T00:31:06.764Z,25.45
2023-08-21T00:33:34.626Z,25.41
2023-08-21T00:36:02.455Z,25.39
2023-08-21T00:38:30.308Z,25.40
2023-08-21T00:40:58.768Z,25.42
2023-08-21T00:43:26.616Z,25.42
2023-08-21T00:45:54.268Z,25.41
2023-08-21T00:48:22.205Z,25.38
2023-08-21T00:50:49.932Z,25.36
2023-08-21T00:53:18.172Z,25.34
2023-08-21T00:55:45.916Z,25.31
2023-08-21T00:58:14.136Z,25.29
2023-08-21T01:00:41.897Z,25.26
2023-08-21T01:03:10.315Z,25.26
2023-08-21T01:05:38.296Z,25.26
2023-08-21T01:08:08.360Z,25.26
2023-08-21T01:10:47.167Z,25.24
2023-08-21T01:13:17.850Z,25.23
2023-08-21T01:15:45.560Z,25.22
2023-08-21T01:18:14.320Z,25.19
2023-08-21T01:20:42.006Z,25.18
2023-08-21T01:23:10.971Z,25.16
2023-08-21T01:25:39.267Z,25.16
2023-08-21T01:28:07.122Z,25.17
2023-08-21T01:30:35.243Z,25.17
2023-08-21T01:33:07.111Z,25.21
2023-08-21T01:35:37.303Z,25.23
2023-08-21T01:38:05.351Z,25.25
2023-08-21T01:40:33.086Z,25.25
2023-08-21T01:43:01.094Z,25.19
2023-08-21T01:45:28.964Z,25.10
2023-08-21T01:47:56.878Z,25.05
2023-08-21T01:50:24.604Z,24.98
2023-08-21T01:52:52.401Z,24.94
2023-08-21T01:55:20.088Z,24.92
2023-08-21T01:57:49.273Z,24.89
2023-08-21T02:00:17.150Z,24.87
2023-08-21T02:02:45.910Z,24.81
2023-08-21T02:05:13.774Z,24.80
2023-08-21T02:07:41.393Z,24.77
2023-08-21T02:10:09.676Z,24.73
2023-08-21T02:12:40.180Z,24.78
2023-08-21T02:15:09.161Z,24.83
2023-08-21T02:17:36.902Z,24.82
2023-08-21T02:20:04.975Z,24.70
2023-08-21T02:22:32.548Z,24.81
2023-08-21T02:25:00.262Z,24.62
2023-08-21T02:27:27.992Z,24.56
2023-08-21T02:29:55.695Z,24.55
2023-08-21T02:32:23.320Z,24.52
2023-08-21T02:34:51.075Z,24.48
2023-08-21T02:37:18.731Z,24.44
2023-08-21T02:39:46.579Z,24.38
2023-08-21T02:42:14.253Z,24.34
2023-08-21T02:44:42.020Z,24.31
2023-08-21T02:47:09.832Z,24.26
2023-08-21T02:49:37.468Z,24.24
2023-08-21T02:52:05.235Z,24.25
2023-08-21T02:54:33.020Z,24.26
2023-08-21T02:57:00.769Z,24.26
2023-08-21T02:59:28.436Z,24.25
2023-08-21T03:01:56.171Z,24.25
2023-08-21T03:04:24.577Z,24.24
2023-08-21T03:06:52.341Z,24.22
2023-08-21T03:09:19.900Z,24.21
2023-08-21T03:11:47.576Z,24.19
2023-08-21T03:14:17.418Z,24.17
2023-08-21T03:16:45.153Z,24.17
2023-08-21T03:19:12.982Z,24.15
2023-08-21T03:21:40.641Z,24.15
2023-08-21T03:24:08.882Z,24.14
2023-08-21T03:26:37.005Z,24.14
2023-08-21T03:29:04.721Z,24.14
2023-08-21T03:31:32.492Z,24.14
2023-08-21T03:34:00.180Z,24.15
2023-08-21T03:36:34.711Z,24.18
2023-08-21T03:39:05.263Z,24.25
2023-08-21T03:41:33.945Z,24.25
2023-08-21T03:44:01.790Z,24.25
2023-08-21T03:46:29.486Z,24.27
2023-08-21T03:48:57.238Z,24.29
2023-08-21T03:51:24.997Z,24.32
2023-08-21T03:53:52.866Z,24.36
2023-08-21T03:56:20.723Z,24.42
2023-08-21T03:58:49.521Z,24.47
2023-08-21T04:01:17.367Z,24.54
2023-08-21T04:03:45.388Z,24.59
2023-08-21T04:06:13.715Z,24.65
2023-08-21T04:08:41.532Z,24.73
2023-08-21T04:11:09.428Z,24.78
2023-08-21T04:13:37.115Z,24.80
2023-08-21T04:16:05.230Z,24.89
2023-08-21T04:18:41.327Z,24.92
2023-08-21T04:21:10.616Z,25.00
2023-08-21T04:23:38.394Z,25.08
2023-08-21T04:26:06.264Z,25.15
2023-08-21T04:28:34.316Z,25.21
2023-08-21T04:31:02.386Z,25.29
2023-08-21T04:33:30.721Z,25.35
2023-08-21T04:35:58.506Z,25.43
2023-08-21T04:38:26.312Z,25.50
2023-08-21T04:40:54.162Z,25.56
2023-08-21T04:43:22.224Z,25.64
2023-08-21T04:45:51.898Z,25.71
2023-08-21T04:48:21.012Z,25.79
2023-08-21T04:50:49.402Z,25.82
2023-08-21T04:53:17.349Z,25.92
2023-08-21T04:55:45.255Z,26.01
2023-08-21T04:58:14.141Z,26.09
2023-08-21T05:00:42.119Z,26.13
2023-08-21T05:03:10.651Z,26.22
2023-08-21T05:05:38.944Z,26.31
2023-08-21T05:08:07.059Z,26.39
2023-08-21T05:10:34.989Z,26.46
2023-08-21T05:13:02.797Z,26.56
2023-08-21T05:15:30.727Z,26.68
2023-08-21T05:17:58.566Z,26.76
2023-08-21T05:20:26.343Z,26.86
2023-08-21T05:22:54.112Z,26.99
2023-08-21T05:25:22.112Z,27.11
2023-08-21T05:27:50.064Z,27.23
2023-08-21T05:30:17.859Z,27.31
2023-08-21T05:32:45.658Z,27.43
2023-08-21T05:35:13.449Z,27.54
2023-08-21T05:37:42.245Z,27.62
2023-08-21T05:40:10.225Z,27.73
2023-08-21T05:42:38.293Z,27.84
2023-08-21T05:45:07.144Z,27.95
2023-08-21T05:47:35.493Z,28.09
2023-08-21T05:50:03.412Z,28.17
2023-08-21T05:52:31.262Z,28.27
2023-08-21T05:54:59.261Z,28.40
2023-08-21T05:57:26.974Z,28.51
2023-08-21T05:59:54.736Z,28.63
2023-08-21T06:02:22.517Z,28.75
2023-08-21T06:04:50.285Z,28.84
2023-08-21T06:07:18.048Z,28.92
2023-08-21T06:09:45.856Z,29.11
2023-08-21T06:12:13.609Z,29.22
2023-08-21T06:14:41.968Z,29.32
2023-08-21T06:17:10.471Z,29.41
2023-08-21T06:19:38.398Z,29.45
2023-08-21T06:22:06.472Z,29.47
2023-08-21T06:24:34.305Z,29.54
2023-08-21T06:27:05.971Z,29.64
2023-08-21T06:29:36.327Z,29.74
2023-08-21T06:32:04.463Z,29.82
2023-08-21T06:34:32.215Z,29.91
2023-08-21T06:36:59.904Z,30.02
2023-08-21T06:39:28.397Z,30.15
2023-08-21T06:41:56.225Z,30.28
2023-08-21T06:44:26.762Z,30.39
2023-08-21T06:46:54.556Z,30.47
2023-08-21T06:49:22.248Z,30.54
2023-08-21T06:51:49.981Z,30.56
2023-08-21T06:54:19.215Z,30.66
2023-08-21T06:56:47.121Z,30.76
2023-08-21T06:59:14.912Z,30.85
2023-08-21T07:01:42.659Z,30.92
2023-08-21T07:04:10.464Z,30.97
2023-08-21T07:06:38.236Z,31.02
2023-08-21T07:09:05.911Z,31.04
2023-08-21T07:11:34.370Z,31.03
2023-08-21T07:14:02.043Z,31.11
2023-08-21T07:16:29.910Z,31.17
2023-08-21T07:18:57.610Z,31.26
2023-08-21T07:21:33.618Z,31.35
2023-08-21T07:24:05.069Z,31.43
2023-08-21T07:26:32.884Z,31.45
2023-08-21T07:29:00.638Z,31.50
2023-08-21T07:31:28.383Z,31.52
2023-08-21T07:33:56.163Z,31.54
2023-08-21T07:36:23.857Z,31.58
2023-08-21T07:38:51.884Z,31.62
2023-08-21T07:41:19.572Z,31.67
2023-08-21T07:43:47.499Z,31.78
2023-08-21T07:46:17.579Z,31.87
2023-08-21T07:48:45.785Z,31.93
2023-08-21T07:51:13.595Z,31.94
2023-08-21T07:53:41.279Z,32.00
2023-08-21T07:56:09.362Z,32.06
2023-08-21T07:58:37.065Z,32.13
